sensor_id;sensor_type;location;lat;lon;timestamp;temperature;humidity
19692;DHT22;42748;50.016;19.890;2023-08-07T15:17:13;17.20;99.90
19692;DHT22;42748;50.016;19.890;2023-08-07T15:19:40;16.30;99.90
19692;DHT22;42748;50.016;19.890;2023-08-07T15:22:07;16.20;99.90
19692;DHT22;42748;50.016;19.890;2023-08-07T15:24:34;16.20;99.90
19692;DHT22;42748;50.016;19.890;2023-08-07T15:27:02;16.20;99.90
19692;DHT22;42748;50.016;19.890;2023-08-07T15:29:29;16.10;99.90
19692;DHT22;42748;50.016;19.890;2023-08-07T15:31:56;16.10;99.90
19692;DHT22;42748;50.016;19.890;2023-08-07T15:34:24;16.10;99.90
19692;DHT22;42748;50.016;19.890;2023-08-07T15:36:51;16.10;99.90
19692;DHT22;42748;50.016;19.890;2023-08-07T15:39:18;16.10;99.90
19692;DHT22;42748;50.016;19.890;2023-08-07T15:41:46;16.20;99.90
19692;DHT22;42748;50.016;19.890;2023-08-07T15:44:13;16.30;99.90
19692;DHT22;42748;50.016;19.890;2023-08-07T15:46:40;16.30;99.90
19692;DHT22;42748;50.016;19.890;2023-08-07T15:49:08;16.30;99.90
19692;DHT22;42748;50.016;19.890;2023-08-07T15:51:36;16.40;99.90
19692;DHT22;42748;50.016;19.890;2023-08-07T15:54:03;16.50;99.90
19692;DHT22;42748;50.016;19.890;2023-08-07T15:56:30;16.50;99.90
19692;DHT22;42748;50.016;19.890;2023-08-07T15:58:57;16.40;99.90
19692;DHT22;42748;50.016;19.890;2023-08-07T16:01:24;16.40;99.90
19692;DHT22;42748;50.016;19.890;2023-08-07T16:03:52;16.40;99.90
19692;DHT22;42748;50.016;19.890;2023-08-07T16:06:19;16.40;99.90
19692;DHT22;42748;50.016;19.890;2023-08-07T16:08:46;16.30;99.90
19692;DHT22;42748;50.016;19.890;2023-08-07T16:11:13;16.30;99.90
19692;DHT22;42748;50.016;19.890;2023-08-07T16:13:41;16.30;99.90
19692;DHT22;42748;50.016;19.890;2023-08-07T16:16:08;16.30;99.90
19692;DHT22;42748;50.016;19.890;2023-08-07T16:18:35;16.20;99.90
19692;DHT22;42748;50.016;19.890;2023-08-07T16:21:03;16.30;99.90
19692;DHT22;42748;50.016;19.890;2023-08-07T16:23:30;16.30;99.90
19692;DHT22;42748;50.016;19.890;2023-08-07T16:25:57;16.40;99.90
19692;DHT22;42748;50.016;19.890;2023-08-07T16:28:25;16.50;99.90
19692;DHT22;42748;50.016;19.890;2023-08-07T16:30:52;16.50;99.90
19692;DHT22;42748;50.016;19.890;2023-08-07T16:33:20;16.60;99.90
19692;DHT22;42748;50.016;19.890;2023-08-07T16:35:47;16.60;99.90
19692;DHT22;42748;50.016;19.890;2023-08-07T16:38:14;16.60;99.90
19692;DHT22;42748;50.016;19.890;2023-08-07T16:40:41;16.70;99.90
19692;DHT22;42748;50.016;19.890;2023-08-07T16:43:08;16.70;99.90
19692;DHT22;42748;50.016;19.890;2023-08-07T16:45:36;16.70;99.90
19692;DHT22;42748;50.016;19.890;2023-08-07T16:48:03;16.60;99.90
19692;DHT22;42748;50.016;19.890;2023-08-07T16:50:30;16.50;99.90
19692;DHT22;42748;50.016;19.890;2023-08-07T16:52:58;16.50;99.90
19692;DHT22;42748;50.016;19.890;2023-08-07T16:55:26;16.50;99.90
19692;DHT22;42748;50.016;19.890;2023-08-07T16:57:54;16.40;99.90
19692;DHT22;42748;50.016;19.890;2023-08-07T17:00:21;16.40;99.90
19692;DHT22;42748;50.016;19.890;2023-08-07T17:02:48;16.30;99.90
19692;DHT22;42748;50.016;19.890;2023-08-07T17:05:17;16.40;99.90
19692;DHT22;42748;50.016;19.890;2023-08-07T17:07:44;16.40;99.90
19692;DHT22;42748;50.016;19.890;2023-08-07T17:10:12;16.30;99.90
19692;DHT22;42748;50.016;19.890;2023-08-07T17:12:40;16.30;99.90
19692;DHT22;42748;50.016;19.890;2023-08-07T17:15:10;16.40;99.90
19692;DHT22;42748;50.016;19.890;2023-08-07T17:17:37;16.30;99.90
19692;DHT22;42748;50.016;19.890;2023-08-07T17:20:04;16.30;99.90
19692;DHT22;42748;50.016;19.890;2023-08-07T17:22:32;16.20;99.90
19692;DHT22;42748;50.016;19.890;2023-08-07T17:25:00;16.20;99.90
19692;DHT22;42748;50.016;19.890;2023-08-07T17:27:27;16.20;99.90
19692;DHT22;42748;50.016;19.890;2023-08-07T17:29:54;16.20;99.90
19692;DHT22;42748;50.016;19.890;2023-08-07T17:32:22;16.00;99.90
19692;DHT22;42748;50.016;19.890;2023-08-07T17:34:49;16.00;99.90
19692;DHT22;42748;50.016;19.890;2023-08-07T17:37:16;15.90;99.90
19692;DHT22;42748;50.016;19.890;2023-08-07T17:39:44;15.80;99.90
19692;DHT22;42748;50.016;19.890;2023-08-07T17:42:11;15.80;99.90
19692;DHT22;42748;50.016;19.890;2023-08-07T17:44:40;15.70;99.90
19692;DHT22;42748;50.016;19.890;2023-08-07T17:47:07;15.60;99.90
19692;DHT22;42748;50.016;19.890;2023-08-07T17:49:35;15.60;99.90
19692;DHT22;42748;50.016;19.890;2023-08-07T17:52:04;15.50;99.90
19692;DHT22;42748;50.016;19.890;2023-08-07T17:54:32;15.40;99.90
19692;DHT22;42748;50.016;19.890;2023-08-07T17:57:01;15.40;99.90
19692;DHT22;42748;50.016;19.890;2023-08-07T17:59:29;15.40;99.90
19692;DHT22;42748;50.016;19.890;2023-08-07T18:01:56;15.30;99.90
19692;DHT22;42748;50.016;19.890;2023-08-07T18:04:23;15.30;99.90
19692;DHT22;42748;50.016;19.890;2023-08-07T18:06:51;15.20;99.90
19692;DHT22;42748;50.016;19.890;2023-08-07T18:09:20;15.20;99.90
19692;DHT22;42748;50.016;19.890;2023-08-07T18:11:47;15.20;99.90
19692;DHT22;42748;50.016;19.890;2023-08-07T18:14:15;15.10;99.90
19692;DHT22;42748;50.016;19.890;2023-08-07T18:16:42;15.10;99.90
19692;DHT22;42748;50.016;19.890;2023-08-07T18:19:09;15.10;99.90
19692;DHT22;42748;50.016;19.890;2023-08-07T18:21:36;15.10;99.90
19692;DHT22;42748;50.016;19.890;2023-08-07T18:24:03;15.10;99.90
19692;DHT22;42748;50.016;19.890;2023-08-07T18:26:31;15.10;99.90
19692;DHT22;42748;50.016;19.890;2023-08-07T18:28:58;15.10;99.90
19692;DHT22;42748;50.016;19.890;2023-08-07T18:31:25;15.00;99.90
19692;DHT22;42748;50.016;19.890;2023-08-07T18:33:57;15.00;99.90
19692;DHT22;42748;50.016;19.890;2023-08-07T18:36:24;15.00;99.90
19692;DHT22;42748;50.016;19.890;2023-08-07T18:38:51;15.00;99.90
19692;DHT22;42748;50.016;19.890;2023-08-07T18:41:18;15.00;99.90
19692;DHT22;42748;50.016;19.890;2023-08-07T18:43:46;15.00;99.90
19692;DHT22;42748;50.016;19.890;2023-08-07T18:46:13;15.00;99.90
19692;DHT22;42748;50.016;19.890;2023-08-07T18:48:43;14.90;99.90
19692;DHT22;42748;50.016;19.890;2023-08-07T18:51:10;14.90;99.90
19692;DHT22;42748;50.016;19.890;2023-08-07T18:53:37;14.90;99.90
19692;DHT22;42748;50.016;19.890;2023-08-07T18:56:06;15.00;99.90
19692;DHT22;42748;50.016;19.890;2023-08-07T18:58:34;15.00;99.90
19692;DHT22;42748;50.016;19.890;2023-08-07T19:01:01;15.00;99.90
19692;DHT22;42748;50.016;19.890;2023-08-07T19:03:28;15.00;99.90
19692;DHT22;42748;50.016;19.890;2023-08-07T19:05:56;15.00;99.90
19692;DHT22;42748;50.016;19.890;2023-08-07T19:08:23;15.00;99.90
19692;DHT22;42748;50.016;19.890;2023-08-07T19:10:50;15.00;99.90
19692;DHT22;42748;50.016;19.890;2023-08-07T19:13:17;15.00;99.90
19692;DHT22;42748;50.016;19.890;2023-08-07T19:15:44;15.00;99.90
19692;DHT22;42748;50.016;19.890;2023-08-07T19:18:13;15.00;99.90
19692;DHT22;42748;50.016;19.890;2023-08-07T19:20:40;15.00;99.90
19692;DHT22;42748;50.016;19.890;2023-08-07T19:23:09;15.00;99.90
19692;DHT22;42748;50.016;19.890;2023-08-07T19:25:37;14.90;99.90
19692;DHT22;42748;50.016;19.890;2023-08-07T19:28:05;14.90;99.90
19692;DHT22;42748;50.016;19.890;2023-08-07T19:30:33;14.90;99.90
19692;DHT22;42748;50.016;19.890;2023-08-07T19:33:01;14.90;99.90
19692;DHT22;42748;50.016;19.890;2023-08-07T19:35:28;14.90;99.90
19692;DHT22;42748;50.016;19.890;2023-08-07T19:37:55;14.90;99.90
19692;DHT22;42748;50.016;19.890;2023-08-07T19:40:22;14.80;99.90
19692;DHT22;42748;50.016;19.890;2023-08-07T19:42:54;14.80;99.90
19692;DHT22;42748;50.016;19.890;2023-08-07T19:45:22;14.80;99.90
19692;DHT22;42748;50.016;19.890;2023-08-07T19:47:50;14.90;99.90
19692;DHT22;42748;50.016;19.890;2023-08-07T19:50:18;14.90;99.90
19692;DHT22;42748;50.016;19.890;2023-08-07T19:52:45;14.90;99.90
19692;DHT22;42748;50.016;19.890;2023-08-07T19:55:12;14.90;99.90
19692;DHT22;42748;50.016;19.890;2023-08-07T19:57:42;15.00;99.90
19692;DHT22;42748;50.016;19.890;2023-08-07T20:00:10;15.00;99.90
19692;DHT22;42748;50.016;19.890;2023-08-07T20:02:37;15.00;99.90
19692;DHT22;42748;50.016;19.890;2023-08-07T20:05:05;15.00;99.90
19692;DHT22;42748;50.016;19.890;2023-08-07T20:07:32;15.00;99.90
19692;DHT22;42748;50.016;19.890;2023-08-07T20:09:59;15.10;99.90
19692;DHT22;42748;50.016;19.890;2023-08-07T20:12:26;15.00;99.90
19692;DHT22;42748;50.016;19.890;2023-08-07T20:14:54;15.10;99.90
19692;DHT22;42748;50.016;19.890;2023-08-07T20:17:21;15.10;99.90
19692;DHT22;42748;50.016;19.890;2023-08-07T20:19:48;15.10;99.90
19692;DHT22;42748;50.016;19.890;2023-08-07T20:22:15;15.10;99.90
19692;DHT22;42748;50.016;19.890;2023-08-07T20:24:43;15.10;99.90
19692;DHT22;42748;50.016;19.890;2023-08-07T20:27:10;15.10;99.90
19692;DHT22;42748;50.016;19.890;2023-08-07T20:29:37;15.10;99.90
19692;DHT22;42748;50.016;19.890;2023-08-07T20:32:05;15.10;99.90
19692;DHT22;42748;50.016;19.890;2023-08-07T20:34:32;15.10;99.90
19692;DHT22;42748;50.016;19.890;2023-08-07T20:36:59;15.10;99.90
19692;DHT22;42748;50.016;19.890;2023-08-07T20:39:26;15.10;99.90
19692;DHT22;42748;50.016;19.890;2023-08-07T20:41:54;15.10;99.90
19692;DHT22;42748;50.016;19.890;2023-08-07T20:44:22;15.10;99.90
19692;DHT22;42748;50.016;19.890;2023-08-07T20:46:50;15.20;99.90
19692;DHT22;42748;50.016;19.890;2023-08-07T20:49:17;15.20;99.90
19692;DHT22;42748;50.016;19.890;2023-08-07T20:51:44;15.20;99.90
19692;DHT22;42748;50.016;19.890;2023-08-07T20:54:11;15.20;99.90
19692;DHT22;42748;50.016;19.890;2023-08-07T20:56:38;15.20;99.90
19692;DHT22;42748;50.016;19.890;2023-08-07T20:59:05;15.20;99.90
19692;DHT22;42748;50.016;19.890;2023-08-07T21:01:32;15.20;99.90
19692;DHT22;42748;50.016;19.890;2023-08-07T21:04:02;15.20;99.90
19692;DHT22;42748;50.016;19.890;2023-08-07T21:06:29;15.20;99.90
19692;DHT22;42748;50.016;19.890;2023-08-07T21:08:56;15.20;99.90
19692;DHT22;42748;50.016;19.890;2023-08-07T21:11:24;15.10;99.90
19692;DHT22;42748;50.016;19.890;2023-08-07T21:13:55;15.10;99.90
19692;DHT22;42748;50.016;19.890;2023-08-07T21:16:23;15.10;99.90
19692;DHT22;42748;50.016;19.890;2023-08-07T21:18:51;15.10;99.90
19692;DHT22;42748;50.016;19.890;2023-08-07T21:21:18;15.10;99.90
19692;DHT22;42748;50.016;19.890;2023-08-07T21:23:45;15.20;99.90
19692;DHT22;42748;50.016;19.890;2023-08-07T21:26:12;15.10;99.90
19692;DHT22;42748;50.016;19.890;2023-08-07T21:28:39;15.10;99.90
19692;DHT22;42748;50.016;19.890;2023-08-07T21:31:07;15.10;99.90
19692;DHT22;42748;50.016;19.890;2023-08-07T21:33:34;15.10;99.90
19692;DHT22;42748;50.016;19.890;2023-08-07T21:36:01;15.10;99.90
19692;DHT22;42748;50.016;19.890;2023-08-07T21:38:30;15.10;99.90
19692;DHT22;42748;50.016;19.890;2023-08-07T21:40:57;15.10;99.90
19692;DHT22;42748;50.016;19.890;2023-08-07T21:43:24;15.10;99.90
19692;DHT22;42748;50.016;19.890;2023-08-07T21:45:52;15.10;99.90
19692;DHT22;42748;50.016;19.890;2023-08-07T21:48:19;15.10;99.90
19692;DHT22;42748;50.016;19.890;2023-08-07T21:50:46;15.10;99.90
19692;DHT22;42748;50.016;19.890;2023-08-07T21:53:13;15.10;99.90
19692;DHT22;42748;50.016;19.890;2023-08-07T21:55:41;15.10;99.90
19692;DHT22;42748;50.016;19.890;2023-08-07T21:58:08;15.00;99.90
19692;DHT22;42748;50.016;19.890;2023-08-07T22:00:35;15.00;99.90
19692;DHT22;42748;50.016;19.890;2023-08-07T22:03:02;15.00;99.90
19692;DHT22;42748;50.016;19.890;2023-08-07T22:05:29;15.00;99.90
19692;DHT22;42748;50.016;19.890;2023-08-07T22:07:56;15.00;99.90
19692;DHT22;42748;50.016;19.890;2023-08-07T22:10:27;15.00;99.90
19692;DHT22;42748;50.016;19.890;2023-08-07T22:12:54;15.00;99.90
19692;DHT22;42748;50.016;19.890;2023-08-07T22:15:21;15.00;99.90
19692;DHT22;42748;50.016;19.890;2023-08-07T22:17:48;15.00;99.90
19692;DHT22;42748;50.016;19.890;2023-08-07T22:20:16;15.00;99.90
19692;DHT22;42748;50.016;19.890;2023-08-07T22:22:44;14.90;99.90
19692;DHT22;42748;50.016;19.890;2023-08-07T22:25:12;15.00;99.90
19692;DHT22;42748;50.016;19.890;2023-08-07T22:27:39;14.90;99.90
19692;DHT22;42748;50.016;19.890;2023-08-07T22:30:07;14.90;99.90
19692;DHT22;42748;50.016;19.890;2023-08-07T22:32:35;14.90;99.90
19692;DHT22;42748;50.016;19.890;2023-08-07T22:35:03;14.90;99.90
19692;DHT22;42748;50.016;19.890;2023-08-07T22:37:30;14.80;99.90
19692;DHT22;42748;50.016;19.890;2023-08-07T22:39:57;14.80;99.90
19692;DHT22;42748;50.016;19.890;2023-08-07T22:42:25;14.80;99.90
19692;DHT22;42748;50.016;19.890;2023-08-07T22:44:52;14.80;99.90
19692;DHT22;42748;50.016;19.890;2023-08-07T22:47:19;14.80;99.90
19692;DHT22;42748;50.016;19.890;2023-08-07T22:49:46;14.80;99.90
19692;DHT22;42748;50.016;19.890;2023-08-07T22:52:13;14.80;99.90
19692;DHT22;42748;50.016;19.890;2023-08-07T22:54:40;14.80;99.90
19692;DHT22;42748;50.016;19.890;2023-08-07T22:57:07;14.80;99.90
19692;DHT22;42748;50.016;19.890;2023-08-07T22:59:35;14.80;99.90
19692;DHT22;42748;50.016;19.890;2023-08-07T23:02:04;14.80;99.90
19692;DHT22;42748;50.016;19.890;2023-08-07T23:04:31;14.70;99.90
19692;DHT22;42748;50.016;19.890;2023-08-07T23:06:58;14.70;99.90
19692;DHT22;42748;50.016;19.890;2023-08-07T23:09:25;14.70;99.90
19692;DHT22;42748;50.016;19.890;2023-08-07T23:11:53;14.80;99.90
19692;DHT22;42748;50.016;19.890;2023-08-07T23:14:20;14.70;99.90
19692;DHT22;42748;50.016;19.890;2023-08-07T23:16:47;14.70;99.90
19692;DHT22;42748;50.016;19.890;2023-08-07T23:19:14;14.70;99.90
19692;DHT22;42748;50.016;19.890;2023-08-07T23:21:41;14.70;99.90
19692;DHT22;42748;50.016;19.890;2023-08-07T23:24:08;14.70;99.90
19692;DHT22;42748;50.016;19.890;2023-08-07T23:26:36;14.70;99.90
19692;DHT22;42748;50.016;19.890;2023-08-07T23:29:03;14.70;99.90
19692;DHT22;42748;50.016;19.890;2023-08-07T23:31:30;14.60;99.90
19692;DHT22;42748;50.016;19.890;2023-08-07T23:33:57;14.60;99.90
19692;DHT22;42748;50.016;19.890;2023-08-07T23:36:24;14.60;99.90
19692;DHT22;42748;50.016;19.890;2023-08-07T23:38:51;14.60;99.90
19692;DHT22;42748;50.016;19.890;2023-08-07T23:41:19;14.60;99.90
19692;DHT22;42748;50.016;19.890;2023-08-07T23:43:46;14.60;99.90
19692;DHT22;42748;50.016;19.890;2023-08-07T23:46:14;14.60;99.90
19692;DHT22;42748;50.016;19.890;2023-08-07T23:48:41;14.70;99.90
19692;DHT22;42748;50.016;19.890;2023-08-07T23:51:08;14.70;99.90
19692;DHT22;42748;50.016;19.890;2023-08-07T23:53:35;14.70;99.90
19692;DHT22;42748;50.016;19.890;2023-08-07T23:56:02;14.70;99.90
19692;DHT22;42748;50.016;19.890;2023-08-07T23:58:30;14.70;99.90
